sensor_id;sensor_type;location;lat;lon;timestamp;temperature;humidity
48589;DHT22;34369;51.174;6.738;2023-05-07T00:02:05;15.10;65.70
48589;DHT22;34369;51.174;6.738;2023-05-07T00:04:38;15.10;65.80
48589;DHT22;34369;51.174;6.738;2023-05-07T00:07:11;15.10;66.00
48589;DHT22;34369;51.174;6.738;2023-05-07T00:09:44;15.10;65.90
48589;DHT22;34369;51.174;6.738;2023-05-07T00:12:17;15.10;65.90
48589;DHT22;34369;51.174;6.738;2023-05-07T00:14:50;15.10;66.10
48589;DHT22;34369;51.174;6.738;2023-05-07T00:17:22;15.00;65.90
48589;DHT22;34369;51.174;6.738;2023-05-07T00:19:54;15.10;66.10
48589;DHT22;34369;51.174;6.738;2023-05-07T00:22:26;15.00;66.10
48589;DHT22;34369;51.174;6.738;2023-05-07T00:25:00;15.00;66.20
48589;DHT22;34369;51.174;6.738;2023-05-07T00:27:35;15.00;66.30
48589;DHT22;34369;51.174;6.738;2023-05-07T00:30:08;15.00;66.50
48589;DHT22;34369;51.174;6.738;2023-05-07T00:32:43;15.00;66.50
48589;DHT22;34369;51.174;6.738;2023-05-07T00:35:15;15.00;66.50
48589;DHT22;34369;51.174;6.738;2023-05-07T00:37:48;15.00;66.50
48589;DHT22;34369;51.174;6.738;2023-05-07T00:40:21;15.00;66.60
48589;DHT22;34369;51.174;6.738;2023-05-07T00:42:55;15.00;66.40
48589;DHT22;34369;51.174;6.738;2023-05-07T00:45:28;15.00;66.50
48589;DHT22;34369;51.174;6.738;2023-05-07T00:48:02;15.00;66.30
48589;DHT22;34369;51.174;6.738;2023-05-07T00:50:35;15.00;66.50
48589;DHT22;34369;51.174;6.738;2023-05-07T00:53:08;14.90;66.40
48589;DHT22;34369;51.174;6.738;2023-05-07T00:55:41;14.90;66.50
48589;DHT22;34369;51.174;6.738;2023-05-07T00:58:15;14.90;66.30
48589;DHT22;34369;51.174;6.738;2023-05-07T01:00:47;14.90;66.30
48589;DHT22;34369;51.174;6.738;2023-05-07T01:03:19;14.90;66.30
48589;DHT22;34369;51.174;6.738;2023-05-07T01:05:53;14.90;66.40
48589;DHT22;34369;51.174;6.738;2023-05-07T01:08:26;14.90;66.60
48589;DHT22;34369;51.174;6.738;2023-05-07T01:11:01;14.90;66.40
48589;DHT22;34369;51.174;6.738;2023-05-07T01:13:37;14.80;66.30
48589;DHT22;34369;51.174;6.738;2023-05-07T01:16:10;14.80;66.50
48589;DHT22;34369;51.174;6.738;2023-05-07T01:18:42;14.80;66.60
48589;DHT22;34369;51.174;6.738;2023-05-07T01:21:16;14.70;66.60
48589;DHT22;34369;51.174;6.738;2023-05-07T01:23:51;14.70;66.40
48589;DHT22;34369;51.174;6.738;2023-05-07T01:26:24;14.70;66.40
48589;DHT22;34369;51.174;6.738;2023-05-07T01:28:56;14.70;66.20
48589;DHT22;34369;51.174;6.738;2023-05-07T01:31:29;14.70;66.40
48589;DHT22;34369;51.174;6.738;2023-05-07T01:34:02;14.70;66.20
48589;DHT22;34369;51.174;6.738;2023-05-07T01:36:36;14.70;66.40
48589;DHT22;34369;51.174;6.738;2023-05-07T01:39:12;14.70;66.60
48589;DHT22;34369;51.174;6.738;2023-05-07T01:41:45;14.70;66.50
48589;DHT22;34369;51.174;6.738;2023-05-07T01:44:18;14.70;66.50
48589;DHT22;34369;51.174;6.738;2023-05-07T01:46:51;14.60;66.60
48589;DHT22;34369;51.174;6.738;2023-05-07T01:49:24;14.60;66.70
48589;DHT22;34369;51.174;6.738;2023-05-07T01:51:58;14.60;66.50
48589;DHT22;34369;51.174;6.738;2023-05-07T01:54:31;14.50;66.40
48589;DHT22;34369;51.174;6.738;2023-05-07T01:57:03;14.50;66.40
48589;DHT22;34369;51.174;6.738;2023-05-07T01:59:36;14.50;66.20
48589;DHT22;34369;51.174;6.738;2023-05-07T02:02:07;14.50;66.10
48589;DHT22;34369;51.174;6.738;2023-05-07T02:04:39;14.50;66.10
48589;DHT22;34369;51.174;6.738;2023-05-07T02:07:12;14.50;66.10
48589;DHT22;34369;51.174;6.738;2023-05-07T02:09:45;14.50;66.30
48589;DHT22;34369;51.174;6.738;2023-05-07T02:12:17;14.50;66.10
48589;DHT22;34369;51.174;6.738;2023-05-07T02:14:50;14.50;66.20
48589;DHT22;34369;51.174;6.738;2023-05-07T02:17:23;14.50;66.30
48589;DHT22;34369;51.174;6.738;2023-05-07T02:19:56;14.50;66.50
48589;DHT22;34369;51.174;6.738;2023-05-07T02:22:28;14.50;66.40
48589;DHT22;34369;51.174;6.738;2023-05-07T02:25:03;14.40;66.50
48589;DHT22;34369;51.174;6.738;2023-05-07T02:27:37;14.40;66.70
48589;DHT22;34369;51.174;6.738;2023-05-07T02:30:10;14.40;66.70
48589;DHT22;34369;51.174;6.738;2023-05-07T02:32:43;14.40;66.80
48589;DHT22;34369;51.174;6.738;2023-05-07T02:35:15;14.40;66.90
48589;DHT22;34369;51.174;6.738;2023-05-07T02:37:48;14.40;66.80
48589;DHT22;34369;51.174;6.738;2023-05-07T02:40:22;14.40;66.80
48589;DHT22;34369;51.174;6.738;2023-05-07T02:42:55;14.30;66.80
48589;DHT22;34369;51.174;6.738;2023-05-07T02:45:28;14.30;66.80
48589;DHT22;34369;51.174;6.738;2023-05-07T02:48:00;14.20;66.90
48589;DHT22;34369;51.174;6.738;2023-05-07T02:50:32;14.20;66.80
48589;DHT22;34369;51.174;6.738;2023-05-07T02:53:04;14.20;66.90
48589;DHT22;34369;51.174;6.738;2023-05-07T02:55:38;14.20;66.90
48589;DHT22;34369;51.174;6.738;2023-05-07T02:58:11;14.10;66.90
48589;DHT22;34369;51.174;6.738;2023-05-07T03:00:44;14.10;67.00
48589;DHT22;34369;51.174;6.738;2023-05-07T03:03:18;14.10;67.00
48589;DHT22;34369;51.174;6.738;2023-05-07T03:05:51;14.00;67.00
48589;DHT22;34369;51.174;6.738;2023-05-07T03:08:23;14.00;66.90
48589;DHT22;34369;51.174;6.738;2023-05-07T03:11:00;14.00;66.80
48589;DHT22;34369;51.174;6.738;2023-05-07T03:13:32;13.90;66.70
48589;DHT22;34369;51.174;6.738;2023-05-07T03:16:06;13.90;66.60
48589;DHT22;34369;51.174;6.738;2023-05-07T03:18:38;13.90;66.60
48589;DHT22;34369;51.174;6.738;2023-05-07T03:21:10;13.90;66.80
48589;DHT22;34369;51.174;6.738;2023-05-07T03:23:42;13.90;66.80
48589;DHT22;34369;51.174;6.738;2023-05-07T03:26:17;13.90;67.00
48589;DHT22;34369;51.174;6.738;2023-05-07T03:28:50;13.90;67.20
48589;DHT22;34369;51.174;6.738;2023-05-07T03:31:23;13.90;67.20
48589;DHT22;34369;51.174;6.738;2023-05-07T03:33:57;13.90;67.00
48589;DHT22;34369;51.174;6.738;2023-05-07T03:36:31;13.80;67.10
48589;DHT22;34369;51.174;6.738;2023-05-07T03:39:10;13.80;67.00
48589;DHT22;34369;51.174;6.738;2023-05-07T03:41:53;13.80;67.20
48589;DHT22;34369;51.174;6.738;2023-05-07T03:44:26;13.70;67.50
48589;DHT22;34369;51.174;6.738;2023-05-07T03:46:59;13.70;67.40
48589;DHT22;34369;51.174;6.738;2023-05-07T03:49:33;13.70;67.40
48589;DHT22;34369;51.174;6.738;2023-05-07T03:52:09;13.70;67.40
48589;DHT22;34369;51.174;6.738;2023-05-07T03:54:42;13.70;67.30
48589;DHT22;34369;51.174;6.738;2023-05-07T03:57:18;13.70;67.40
48589;DHT22;34369;51.174;6.738;2023-05-07T03:59:51;13.70;67.50
48589;DHT22;34369;51.174;6.738;2023-05-07T04:02:24;13.70;67.50
48589;DHT22;34369;51.174;6.738;2023-05-07T04:04:58;13.70;67.40
48589;DHT22;34369;51.174;6.738;2023-05-07T04:07:36;13.70;67.40
48589;DHT22;34369;51.174;6.738;2023-05-07T04:10:10;13.70;67.40
48589;DHT22;34369;51.174;6.738;2023-05-07T04:12:46;13.70;67.40
48589;DHT22;34369;51.174;6.738;2023-05-07T04:15:20;13.70;67.50
48589;DHT22;34369;51.174;6.738;2023-05-07T04:17:54;13.70;67.60
48589;DHT22;34369;51.174;6.738;2023-05-07T04:20:29;13.70;67.70
48589;DHT22;34369;51.174;6.738;2023-05-07T04:23:04;13.70;67.80
48589;DHT22;34369;51.174;6.738;2023-05-07T04:25:37;13.70;67.90
48589;DHT22;34369;51.174;6.738;2023-05-07T04:28:18;13.70;67.80
48589;DHT22;34369;51.174;6.738;2023-05-07T04:30:54;13.70;67.80
48589;DHT22;34369;51.174;6.738;2023-05-07T04:33:28;13.70;68.00
48589;DHT22;34369;51.174;6.738;2023-05-07T04:36:01;13.70;68.10
48589;DHT22;34369;51.174;6.738;2023-05-07T04:38:36;13.70;68.10
48589;DHT22;34369;51.174;6.738;2023-05-07T04:41:12;13.70;68.10
48589;DHT22;34369;51.174;6.738;2023-05-07T04:43:51;13.80;68.00
48589;DHT22;34369;51.174;6.738;2023-05-07T04:46:25;13.80;68.00
48589;DHT22;34369;51.174;6.738;2023-05-07T04:48:59;13.80;68.00
48589;DHT22;34369;51.174;6.738;2023-05-07T04:51:35;13.90;68.10
48589;DHT22;34369;51.174;6.738;2023-05-07T04:54:10;13.90;68.20
48589;DHT22;34369;51.174;6.738;2023-05-07T04:56:44;13.90;68.10
48589;DHT22;34369;51.174;6.738;2023-05-07T04:59:23;13.90;68.20
48589;DHT22;34369;51.174;6.738;2023-05-07T05:01:58;13.90;68.40
48589;DHT22;34369;51.174;6.738;2023-05-07T05:04:33;14.00;68.20
48589;DHT22;34369;51.174;6.738;2023-05-07T05:07:08;14.00;68.10
48589;DHT22;34369;51.174;6.738;2023-05-07T05:09:42;14.00;68.20
48589;DHT22;34369;51.174;6.738;2023-05-07T05:12:37;14.10;67.90
48589;DHT22;34369;51.174;6.738;2023-05-07T05:15:47;14.10;68.30
48589;DHT22;34369;51.174;6.738;2023-05-07T05:18:39;14.20;68.20
48589;DHT22;34369;51.174;6.738;2023-05-07T05:21:37;14.20;67.80
48589;DHT22;34369;51.174;6.738;2023-05-07T05:24:14;14.20;67.80
48589;DHT22;34369;51.174;6.738;2023-05-07T05:26:56;14.30;67.70
48589;DHT22;34369;51.174;6.738;2023-05-07T05:29:47;14.30;67.70
48589;DHT22;34369;51.174;6.738;2023-05-07T05:32:25;14.40;68.00
48589;DHT22;34369;51.174;6.738;2023-05-07T05:35:00;14.40;67.60
48589;DHT22;34369;51.174;6.738;2023-05-07T05:37:36;14.50;67.50
48589;DHT22;34369;51.174;6.738;2023-05-07T05:40:11;14.50;67.60
48589;DHT22;34369;51.174;6.738;2023-05-07T05:42:46;14.60;67.20
48589;DHT22;34369;51.174;6.738;2023-05-07T05:45:21;14.70;67.30
48589;DHT22;34369;51.174;6.738;2023-05-07T05:48:01;14.70;67.20
48589;DHT22;34369;51.174;6.738;2023-05-07T05:50:37;14.70;67.20
48589;DHT22;34369;51.174;6.738;2023-05-07T05:53:11;14.80;67.20
48589;DHT22;34369;51.174;6.738;2023-05-07T05:55:45;14.90;67.10
48589;DHT22;34369;51.174;6.738;2023-05-07T05:58:20;15.00;67.10
48589;DHT22;34369;51.174;6.738;2023-05-07T06:01:11;15.00;67.00
48589;DHT22;34369;51.174;6.738;2023-05-07T06:04:13;15.00;66.80
48589;DHT22;34369;51.174;6.738;2023-05-07T06:07:23;15.10;66.60
48589;DHT22;34369;51.174;6.738;2023-05-07T06:19:40;15.30;65.90
48589;DHT22;34369;51.174;6.738;2023-05-07T06:21:48;15.50;65.80
48589;DHT22;34369;51.174;6.738;2023-05-07T06:24:43;15.50;65.70
48589;DHT22;34369;51.174;6.738;2023-05-07T06:28:05;15.50;65.70
48589;DHT22;34369;51.174;6.738;2023-05-07T06:31:16;15.60;65.70
48589;DHT22;34369;51.174;6.738;2023-05-07T06:34:44;15.70;65.30
48589;DHT22;34369;51.174;6.738;2023-05-07T06:38:47;15.80;65.10
48589;DHT22;34369;51.174;6.738;2023-05-07T06:48:46;16.00;64.60
48589;DHT22;34369;51.174;6.738;2023-05-07T06:51:34;16.10;64.60
48589;DHT22;34369;51.174;6.738;2023-05-07T06:54:11;16.20;64.70
48589;DHT22;34369;51.174;6.738;2023-05-07T06:56:45;16.30;64.60
48589;DHT22;34369;51.174;6.738;2023-05-07T06:59:20;16.40;64.60
48589;DHT22;34369;51.174;6.738;2023-05-07T07:01:55;16.40;64.40
48589;DHT22;34369;51.174;6.738;2023-05-07T07:04:34;16.50;64.20
48589;DHT22;34369;51.174;6.738;2023-05-07T07:07:21;16.60;63.90
48589;DHT22;34369;51.174;6.738;2023-05-07T07:10:07;16.70;63.40
48589;DHT22;34369;51.174;6.738;2023-05-07T07:12:41;16.80;63.10
48589;DHT22;34369;51.174;6.738;2023-05-07T07:15:17;16.90;63.30
48589;DHT22;34369;51.174;6.738;2023-05-07T07:24:07;17.00;63.00
48589;DHT22;34369;51.174;6.738;2023-05-07T07:26:53;17.20;62.50
48589;DHT22;34369;51.174;6.738;2023-05-07T07:29:28;17.20;62.00
48589;DHT22;34369;51.174;6.738;2023-05-07T07:32:03;17.30;62.30
48589;DHT22;34369;51.174;6.738;2023-05-07T07:35:01;17.40;62.20
48589;DHT22;34369;51.174;6.738;2023-05-07T07:37:38;17.50;62.20
48589;DHT22;34369;51.174;6.738;2023-05-07T07:40:16;17.50;61.80
48589;DHT22;34369;51.174;6.738;2023-05-07T07:43:12;17.60;61.30
48589;DHT22;34369;51.174;6.738;2023-05-07T07:45:49;17.70;61.70
48589;DHT22;34369;51.174;6.738;2023-05-07T07:48:22;17.80;61.20
48589;DHT22;34369;51.174;6.738;2023-05-07T07:50:59;17.80;61.20
48589;DHT22;34369;51.174;6.738;2023-05-07T07:57:28;18.10;61.20
48589;DHT22;34369;51.174;6.738;2023-05-07T08:07:01;18.60;60.40
48589;DHT22;34369;51.174;6.738;2023-05-07T08:09:59;18.90;60.30
48589;DHT22;34369;51.174;6.738;2023-05-07T08:12:38;19.10;60.30
48589;DHT22;34369;51.174;6.738;2023-05-07T08:15:15;19.30;59.80
48589;DHT22;34369;51.174;6.738;2023-05-07T08:21:27;19.60;58.90
48589;DHT22;34369;51.174;6.738;2023-05-07T08:24:04;19.80;58.90
48589;DHT22;34369;51.174;6.738;2023-05-07T08:26:37;20.00;59.00
48589;DHT22;34369;51.174;6.738;2023-05-07T08:29:11;20.10;58.40
48589;DHT22;34369;51.174;6.738;2023-05-07T08:31:54;20.20;58.00
48589;DHT22;34369;51.174;6.738;2023-05-07T08:35:02;20.30;57.70
48589;DHT22;34369;51.174;6.738;2023-05-07T08:37:50;20.50;58.10
48589;DHT22;34369;51.174;6.738;2023-05-07T08:40:36;20.60;58.20
48589;DHT22;34369;51.174;6.738;2023-05-07T08:43:27;20.80;57.50
48589;DHT22;34369;51.174;6.738;2023-05-07T08:46:05;20.90;56.70
48589;DHT22;34369;51.174;6.738;2023-05-07T08:48:50;21.10;57.20
48589;DHT22;34369;51.174;6.738;2023-05-07T08:51:26;21.20;57.20
48589;DHT22;34369;51.174;6.738;2023-05-07T08:53:59;21.30;56.90
48589;DHT22;34369;51.174;6.738;2023-05-07T08:56:37;21.50;56.60
48589;DHT22;34369;51.174;6.738;2023-05-07T08:59:11;21.50;55.20
48589;DHT22;34369;51.174;6.738;2023-05-07T09:01:44;21.50;55.30
48589;DHT22;34369;51.174;6.738;2023-05-07T09:04:17;21.60;55.00
48589;DHT22;34369;51.174;6.738;2023-05-07T09:06:50;21.60;54.90
48589;DHT22;34369;51.174;6.738;2023-05-07T09:09:23;21.60;54.60
48589;DHT22;34369;51.174;6.738;2023-05-07T09:11:59;21.50;54.80
48589;DHT22;34369;51.174;6.738;2023-05-07T09:14:34;21.60;54.60
48589;DHT22;34369;51.174;6.738;2023-05-07T09:17:06;21.50;54.90
48589;DHT22;34369;51.174;6.738;2023-05-07T09:19:39;21.60;54.80
48589;DHT22;34369;51.174;6.738;2023-05-07T09:22:12;21.60;54.70
48589;DHT22;34369;51.174;6.738;2023-05-07T09:24:48;21.70;54.60
48589;DHT22;34369;51.174;6.738;2023-05-07T09:27:25;21.70;53.80
48589;DHT22;34369;51.174;6.738;2023-05-07T09:29:59;21.70;52.90
48589;DHT22;34369;51.174;6.738;2023-05-07T09:32:37;21.70;53.70
48589;DHT22;34369;51.174;6.738;2023-05-07T09:35:15;21.70;53.50
48589;DHT22;34369;51.174;6.738;2023-05-07T09:37:53;21.70;53.80
48589;DHT22;34369;51.174;6.738;2023-05-07T09:40:30;21.70;53.60
48589;DHT22;34369;51.174;6.738;2023-05-07T09:43:13;21.70;53.50
48589;DHT22;34369;51.174;6.738;2023-05-07T09:45:48;21.90;53.00
48589;DHT22;34369;51.174;6.738;2023-05-07T09:48:22;21.90;53.30
48589;DHT22;34369;51.174;6.738;2023-05-07T09:50:58;22.00;53.50
48589;DHT22;34369;51.174;6.738;2023-05-07T09:53:37;22.10;53.20
48589;DHT22;34369;51.174;6.738;2023-05-07T09:56:14;22.20;53.00
48589;DHT22;34369;51.174;6.738;2023-05-07T09:58:53;22.30;52.50
48589;DHT22;34369;51.174;6.738;2023-05-07T10:01:29;22.40;52.20
48589;DHT22;34369;51.174;6.738;2023-05-07T10:04:06;22.50;53.10
48589;DHT22;34369;51.174;6.738;2023-05-07T10:06:41;22.50;53.10
48589;DHT22;34369;51.174;6.738;2023-05-07T10:09:18;22.70;53.20
48589;DHT22;34369;51.174;6.738;2023-05-07T10:11:53;22.80;52.70
48589;DHT22;34369;51.174;6.738;2023-05-07T10:14:28;22.90;52.00
48589;DHT22;34369;51.174;6.738;2023-05-07T10:17:03;22.90;51.50
48589;DHT22;34369;51.174;6.738;2023-05-07T10:19:38;23.00;51.80
48589;DHT22;34369;51.174;6.738;2023-05-07T10:22:14;23.10;51.00
48589;DHT22;34369;51.174;6.738;2023-05-07T10:24:49;23.10;51.10
48589;DHT22;34369;51.174;6.738;2023-05-07T10:27:26;23.10;51.50
48589;DHT22;34369;51.174;6.738;2023-05-07T10:30:12;23.30;51.90
48589;DHT22;34369;51.174;6.738;2023-05-07T10:32:53;23.30;49.80
48589;DHT22;34369;51.174;6.738;2023-05-07T10:35:31;23.40;49.80
48589;DHT22;34369;51.174;6.738;2023-05-07T10:38:12;23.50;49.80
48589;DHT22;34369;51.174;6.738;2023-05-07T10:40:47;23.50;49.40
48589;DHT22;34369;51.174;6.738;2023-05-07T10:43:21;23.60;49.30
48589;DHT22;34369;51.174;6.738;2023-05-07T10:46:10;23.70;49.30
48589;DHT22;34369;51.174;6.738;2023-05-07T10:49:06;23.70;49.70
48589;DHT22;34369;51.174;6.738;2023-05-07T10:51:46;23.90;48.50
48589;DHT22;34369;51.174;6.738;2023-05-07T10:54:47;24.00;48.90
48589;DHT22;34369;51.174;6.738;2023-05-07T10:57:35;24.10;47.50
48589;DHT22;34369;51.174;6.738;2023-05-07T11:00:41;24.20;46.60
48589;DHT22;34369;51.174;6.738;2023-05-07T11:03:17;24.30;45.20
48589;DHT22;34369;51.174;6.738;2023-05-07T11:06:09;24.30;46.20
48589;DHT22;34369;51.174;6.738;2023-05-07T11:08:55;24.30;46.40
48589;DHT22;34369;51.174;6.738;2023-05-07T11:11:47;24.30;46.10
48589;DHT22;34369;51.174;6.738;2023-05-07T11:14:43;24.30;46.40
48589;DHT22;34369;51.174;6.738;2023-05-07T11:17:17;24.40;45.50
48589;DHT22;34369;51.174;6.738;2023-05-07T11:19:53;24.40;45.90
48589;DHT22;34369;51.174;6.738;2023-05-07T11:22:37;24.50;45.50
48589;DHT22;34369;51.174;6.738;2023-05-07T11:25:17;24.50;45.80
48589;DHT22;34369;51.174;6.738;2023-05-07T11:27:51;24.60;45.20
48589;DHT22;34369;51.174;6.738;2023-05-07T11:30:25;24.60;45.70
48589;DHT22;34369;51.174;6.738;2023-05-07T11:32:59;24.70;45.20
48589;DHT22;34369;51.174;6.738;2023-05-07T11:35:34;24.70;45.50
48589;DHT22;34369;51.174;6.738;2023-05-07T11:38:08;24.70;45.30
48589;DHT22;34369;51.174;6.738;2023-05-07T11:40:49;24.80;45.40
48589;DHT22;34369;51.174;6.738;2023-05-07T11:43:24;24.80;45.00
48589;DHT22;34369;51.174;6.738;2023-05-07T11:46:06;24.80;44.70
48589;DHT22;34369;51.174;6.738;2023-05-07T11:48:40;24.80;43.70
48589;DHT22;34369;51.174;6.738;2023-05-07T11:51:19;24.80;44.70
48589;DHT22;34369;51.174;6.738;2023-05-07T11:53:53;24.80;44.50
48589;DHT22;34369;51.174;6.738;2023-05-07T11:56:26;24.80;45.00
48589;DHT22;34369;51.174;6.738;2023-05-07T11:58:58;24.80;44.80
48589;DHT22;34369;51.174;6.738;2023-05-07T12:01:34;24.80;43.70
48589;DHT22;34369;51.174;6.738;2023-05-07T12:04:09;24.80;44.20
48589;DHT22;34369;51.174;6.738;2023-05-07T12:06:44;24.70;44.20
48589;DHT22;34369;51.174;6.738;2023-05-07T12:09:17;24.70;43.80
48589;DHT22;34369;51.174;6.738;2023-05-07T12:11:52;24.70;43.80
48589;DHT22;34369;51.174;6.738;2023-05-07T12:14:27;24.60;43.70
48589;DHT22;34369;51.174;6.738;2023-05-07T12:17:02;24.60;44.00
48589;DHT22;34369;51.174;6.738;2023-05-07T12:19:37;24.60;44.00
48589;DHT22;34369;51.174;6.738;2023-05-07T12:22:13;24.50;44.30
48589;DHT22;34369;51.174;6.738;2023-05-07T12:24:56;24.50;44.30
48589;DHT22;34369;51.174;6.738;2023-05-07T12:27:30;24.50;44.20
48589;DHT22;34369;51.174;6.738;2023-05-07T12:30:05;24.50;44.10
48589;DHT22;34369;51.174;6.738;2023-05-07T12:32:42;24.40;44.50
48589;DHT22;34369;51.174;6.738;2023-05-07T12:35:17;24.40;44.60
48589;DHT22;34369;51.174;6.738;2023-05-07T12:38:00;24.40;44.20
48589;DHT22;34369;51.174;6.738;2023-05-07T12:40:39;24.40;45.10
48589;DHT22;34369;51.174;6.738;2023-05-07T12:43:16;24.40;44.70
48589;DHT22;34369;51.174;6.738;2023-05-07T12:45:51;24.30;45.00
48589;DHT22;34369;51.174;6.738;2023-05-07T12:48:27;24.30;44.40
48589;DHT22;34369;51.174;6.738;2023-05-07T12:51:01;24.30;44.40
48589;DHT22;34369;51.174;6.738;2023-05-07T12:53:40;24.20;44.10
48589;DHT22;34369;51.174;6.738;2023-05-07T12:56:15;24.20;44.10
48589;DHT22;34369;51.174;6.738;2023-05-07T12:58:49;24.10;44.80
48589;DHT22;34369;51.174;6.738;2023-05-07T13:01:28;24.10;45.00
48589;DHT22;34369;51.174;6.738;2023-05-07T13:04:03;24.10;44.50
48589;DHT22;34369;51.174;6.738;2023-05-07T13:06:37;24.00;45.10
48589;DHT22;34369;51.174;6.738;2023-05-07T13:09:13;24.00;45.50
48589;DHT22;34369;51.174;6.738;2023-05-07T13:11:45;23.90;45.00
48589;DHT22;34369;51.174;6.738;2023-05-07T13:14:18;23.90;45.10
48589;DHT22;34369;51.174;6.738;2023-05-07T13:16:53;23.90;45.20
48589;DHT22;34369;51.174;6.738;2023-05-07T13:19:27;23.80;44.80
48589;DHT22;34369;51.174;6.738;2023-05-07T13:22:05;23.70;45.00
48589;DHT22;34369;51.174;6.738;2023-05-07T13:24:40;23.70;45.50
48589;DHT22;34369;51.174;6.738;2023-05-07T13:27:14;23.60;45.70
48589;DHT22;34369;51.174;6.738;2023-05-07T13:29:47;23.60;45.80
48589;DHT22;34369;51.174;6.738;2023-05-07T13:32:20;23.50;46.10
48589;DHT22;34369;51.174;6.738;2023-05-07T13:34:54;23.50;46.20
48589;DHT22;34369;51.174;6.738;2023-05-07T13:37:28;23.50;46.10
48589;DHT22;34369;51.174;6.738;2023-05-07T13:40:04;23.50;46.10
48589;DHT22;34369;51.174;6.738;2023-05-07T13:42:38;23.40;46.20
48589;DHT22;34369;51.174;6.738;2023-05-07T13:45:12;23.30;46.30
48589;DHT22;34369;51.174;6.738;2023-05-07T13:47:46;23.30;46.40
48589;DHT22;34369;51.174;6.738;2023-05-07T13:50:20;23.30;46.50
48589;DHT22;34369;51.174;6.738;2023-05-07T13:52:53;23.20;46.40
48589;DHT22;34369;51.174;6.738;2023-05-07T13:55:29;23.10;46.60
48589;DHT22;34369;51.174;6.738;2023-05-07T13:58:02;23.00;46.90
48589;DHT22;34369;51.174;6.738;2023-05-07T14:00:35;22.90;46.70
48589;DHT22;34369;51.174;6.738;2023-05-07T14:03:07;22.80;47.00
48589;DHT22;34369;51.174;6.738;2023-05-07T14:05:39;22.70;46.80
48589;DHT22;34369;51.174;6.738;2023-05-07T14:08:13;22.50;47.20
48589;DHT22;34369;51.174;6.738;2023-05-07T14:10:47;22.50;47.50
48589;DHT22;34369;51.174;6.738;2023-05-07T14:13:19;22.30;47.70
48589;DHT22;34369;51.174;6.738;2023-05-07T14:15:52;22.20;48.30
48589;DHT22;34369;51.174;6.738;2023-05-07T14:18:25;22.10;48.50
48589;DHT22;34369;51.174;6.738;2023-05-07T14:20:59;22.00;48.80
48589;DHT22;34369;51.174;6.738;2023-05-07T14:23:34;21.90;49.00
48589;DHT22;34369;51.174;6.738;2023-05-07T14:26:09;21.70;49.40
48589;DHT22;34369;51.174;6.738;2023-05-07T14:28:42;21.50;49.70
48589;DHT22;34369;51.174;6.738;2023-05-07T14:31:16;21.50;50.00
48589;DHT22;34369;51.174;6.738;2023-05-07T14:33:49;21.30;50.40
48589;DHT22;34369;51.174;6.738;2023-05-07T14:36:22;21.10;50.70
48589;DHT22;34369;51.174;6.738;2023-05-07T14:38:56;21.10;51.00
48589;DHT22;34369;51.174;6.738;2023-05-07T14:41:32;21.00;51.40
48589;DHT22;34369;51.174;6.738;2023-05-07T14:44:05;20.90;51.90
48589;DHT22;34369;51.174;6.738;2023-05-07T14:46:39;20.80;52.20
48589;DHT22;34369;51.174;6.738;2023-05-07T14:49:17;20.70;52.50
48589;DHT22;34369;51.174;6.738;2023-05-07T14:51:56;20.70;52.90
48589;DHT22;34369;51.174;6.738;2023-05-07T14:54:33;20.60;53.00
48589;DHT22;34369;51.174;6.738;2023-05-07T14:57:09;20.50;53.10
48589;DHT22;34369;51.174;6.738;2023-05-07T14:59:44;20.50;53.50
48589;DHT22;34369;51.174;6.738;2023-05-07T15:02:17;20.40;53.60
48589;DHT22;34369;51.174;6.738;2023-05-07T15:04:51;20.30;53.90
48589;DHT22;34369;51.174;6.738;2023-05-07T15:07:24;20.30;54.20
48589;DHT22;34369;51.174;6.738;2023-05-07T15:09:58;20.30;54.50
48589;DHT22;34369;51.174;6.738;2023-05-07T15:12:33;20.30;54.70
48589;DHT22;34369;51.174;6.738;2023-05-07T15:15:07;20.20;55.10
48589;DHT22;34369;51.174;6.738;2023-05-07T15:17:40;20.20;55.30
48589;DHT22;34369;51.174;6.738;2023-05-07T15:20:13;20.20;55.20
48589;DHT22;34369;51.174;6.738;2023-05-07T15:22:46;20.20;55.20
48589;DHT22;34369;51.174;6.738;2023-05-07T15:25:19;20.20;55.30
48589;DHT22;34369;51.174;6.738;2023-05-07T15:27:54;20.20;55.20
48589;DHT22;34369;51.174;6.738;2023-05-07T15:30:27;20.20;55.40
48589;DHT22;34369;51.174;6.738;2023-05-07T15:33:00;20.20;55.40
48589;DHT22;34369;51.174;6.738;2023-05-07T15:35:34;20.20;55.40
48589;DHT22;34369;51.174;6.738;2023-05-07T15:38:09;20.20;55.40
48589;DHT22;34369;51.174;6.738;2023-05-07T15:40:44;20.20;55.40
48589;DHT22;34369;51.174;6.738;2023-05-07T15:43:18;20.20;55.10
48589;DHT22;34369;51.174;6.738;2023-05-07T15:45:52;20.20;55.00
48589;DHT22;34369;51.174;6.738;2023-05-07T15:48:25;20.10;55.00
48589;DHT22;34369;51.174;6.738;2023-05-07T15:50:59;20.10;55.00
48589;DHT22;34369;51.174;6.738;2023-05-07T15:53:33;20.10;55.10
48589;DHT22;34369;51.174;6.738;2023-05-07T15:56:05;20.10;55.20
48589;DHT22;34369;51.174;6.738;2023-05-07T15:58:42;20.10;55.40
48589;DHT22;34369;51.174;6.738;2023-05-07T16:01:15;20.10;55.80
48589;DHT22;34369;51.174;6.738;2023-05-07T16:03:48;20.10;55.70
48589;DHT22;34369;51.174;6.738;2023-05-07T16:06:22;20.10;55.80
48589;DHT22;34369;51.174;6.738;2023-05-07T16:08:56;20.10;55.90
48589;DHT22;34369;51.174;6.738;2023-05-07T16:11:30;20.10;55.90
48589;DHT22;34369;51.174;6.738;2023-05-07T16:14:06;20.10;56.00
48589;DHT22;34369;51.174;6.738;2023-05-07T16:16:40;20.20;56.00
48589;DHT22;34369;51.174;6.738;2023-05-07T16:19:14;20.20;56.20
48589;DHT22;34369;51.174;6.738;2023-05-07T16:21:48;20.20;56.10
48589;DHT22;34369;51.174;6.738;2023-05-07T16:24:21;20.30;56.40
48589;DHT22;34369;51.174;6.738;2023-05-07T16:26:54;20.30;56.40
48589;DHT22;34369;51.174;6.738;2023-05-07T16:29:28;20.40;56.30
48589;DHT22;34369;51.174;6.738;2023-05-07T16:32:00;20.40;56.50
48589;DHT22;34369;51.174;6.738;2023-05-07T16:34:34;20.50;56.40
48589;DHT22;34369;51.174;6.738;2023-05-07T16:37:08;20.60;56.10
48589;DHT22;34369;51.174;6.738;2023-05-07T16:39:42;20.70;56.00
48589;DHT22;34369;51.174;6.738;2023-05-07T16:42:15;20.70;55.90
48589;DHT22;34369;51.174;6.738;2023-05-07T16:44:49;20.70;55.70
48589;DHT22;34369;51.174;6.738;2023-05-07T16:47:22;20.80;55.70
48589;DHT22;34369;51.174;6.738;2023-05-07T16:49:55;20.80;55.60
48589;DHT22;34369;51.174;6.738;2023-05-07T16:52:30;20.80;55.40
48589;DHT22;34369;51.174;6.738;2023-05-07T16:55:04;20.80;55.20
48589;DHT22;34369;51.174;6.738;2023-05-07T16:57:37;20.80;55.20
48589;DHT22;34369;51.174;6.738;2023-05-07T17:00:13;20.80;55.30
48589;DHT22;34369;51.174;6.738;2023-05-07T17:02:46;20.80;55.40
48589;DHT22;34369;51.174;6.738;2023-05-07T17:05:19;20.80;55.30
48589;DHT22;34369;51.174;6.738;2023-05-07T17:07:52;20.80;55.40